Date,TemperatureHighF,TemperatureAvgF,TemperatureLowF,DewpointHighF,DewpointAvgF,DewpointLowF,HumidityHigh,HumidityAvg,HumidityLow,PressureMaxIn,PressureMinIn,WindSpeedMaxMPH,WindSpeedAvgMPH,GustSpeedMaxMPH,PrecipitationSumIn
2013-3-1,30.2,27.6,24.9,28.8,26.0,23.2,95,94,92,18.39,18.39,8,4,18,0.05
2013-3-2,25.1,23.1,21.5,23.6,21.4,20.0,94,93,91,18.39,18.39,6,4,13,0.00
2013-3-3,23.7,21.4,19.7,20.9,19.3,17.7,94,92,86,18.39,18.39,5,3,13,0.02
2013-3-4,26.7,23.5,20.3,23.4,20.4,18.3,93,88,81,18.39,18.39,7,5,19,0.00
2013-3-5,30.9,26.4,19.5,26.1,23.1,16.8,93,87,80,18.39,18.39,8,2,14,0.04
2013-3-6,37.1,33.8,29.3,32.0,28.3,25.2,87,80,69,18.39,18.39,11,6,18,0.00
2013-3-7,36.2,32.1,26.8,29.4,26.1,23.4,91,78,71,18.39,18.39,8,3,13,0.00
2013-3-8,34.0,29.3,25.7,27.9,25.1,22.4,94,84,72,18.39,18.39,11,6,22,0.03
2013-3-9,42.1,32.4,23.8,32.6,27.4,21.3,95,83,63,18.39,18.39,8,1,9,0.00
2013-3-10,52.1,43.9,34.1,33.3,29.2,26.0,74,57,46,0.00,40.00,16,9,25,0.00
2013-3-11,50.0,46.3,43.9,38.4,33.5,29.2,70,61,52,18.39,18.39,15,11,25,0.00
2013-3-12,49.9,37.6,34.0,47.7,35.4,31.1,94,92,88,18.39,18.39,7,2,15,0.34
2013-3-13,36.1,32.0,24.8,31.6,26.3,18.8,93,79,67,18.39,18.39,8,3,19,0.06
2013-3-14,29.6,24.5,17.4,19.8,15.8,11.8,91,70,50,18.39,18.39,11,7,26,0.00
2013-3-15,34.2,28.8,22.0,30.8,23.7,16.4,91,81,68,18.39,18.39,9,5,18,0.00
2013-3-16,29.4,24.5,15.2,23.7,19.6,12.4,89,81,74,18.39,18.39,8,2,18,0.00
2013-3-17,29.3,22.3,14.6,21.9,17.5,12.0,93,82,68,18.39,18.39,6,2,11,0.01
2013-3-18,32.5,24.4,16.3,26.1,17.4,9.6,94,76,49,18.39,18.39,17,8,29,0.00
2013-3-19,40.1,30.9,25.8,36.1,27.9,20.3,94,89,71,18.39,18.39,14,6,29,0.07
2013-3-20,31.0,25.8,21.5,26.4,21.6,19.3,92,84,72,18.39,18.39,7,3,17,0.01
2013-3-21,27.1,25.3,24.2,22.5,20.5,16.4,92,82,65,18.39,18.39,4,2,9,0.01
2013-3-22,29.1,26.7,23.8,26.2,24.2,21.8,93,90,87,18.39,18.39,7,3,16,0.00
2013-3-23,34.4,30.1,27.9,27.1,25.5,23.4,91,83,69,18.39,18.39,9,4,21,0.00
2013-3-24,36.3,30.4,20.5,29.2,25.0,18.5,94,81,68,18.39,18.39,5,2,13,0.01
2013-3-25,39.3,35.6,29.7,30.9,28.8,24.8,87,77,64,18.39,18.39,6,3,12,0.00
2013-3-26,41.8,34.1,29.9,34.0,29.7,26.1,93,84,63,18.39,18.39,8,2,16,0.01
2013-3-27,42.9,35.2,31.3,35.6,31.2,28.1,94,85,66,18.39,18.39,8,2,17,0.02
2013-3-28,40.6,35.4,31.5,38.2,32.5,30.0,94,89,78,18.39,18.39,5,2,12,0.07
2013-3-29,43.4,37.4,31.1,36.6,33.0,27.9,92,84,72,18.39,18.39,5,1,11,0.00
2013-3-30,49.0,38.5,27.7,34.2,29.7,24.9,91,72,44,18.39,18.39,4,1,12,0.00
2013-3-31,50.1,41.0,33.9,40.8,33.8,26.1,94,76,58,18.39,18.39,21,9,32,0.25